Time;durP1;ratioP1;P1;durP2;ratioP2;P2;SDS_P1;SDS_P2;PMS_P1;PMS_P2;Temp;Humidity;BMP_temperature;BMP_pressure;BME280_temperature;BME280_humidity;BME280_pressure;Samples;Min_cycle;Max_cycle;Signal;HPM_P1;HPM_P2
2023/05/08 00:01:08;;;;;;;14.37;12.97;;;17.10;99.90;;;;;;5035014;28;20661;-70
2023/05/08 00:03:34;;;;;;;16.50;14.77;;;17.10;99.90;;;;;;5053292;28;20170;-70
2023/05/08 00:06:03;;;;;;;14.50;13.03;;;17.00;99.90;;;;;;5052966;28;20202;-69
2023/05/08 00:08:29;;;;;;;18.10;16.20;;;17.10;99.90;;;;;;5053181;28;20268;-71
2023/05/08 00:10:54;;;;;;;16.30;14.70;;;17.00;99.90;;;;;;5052827;28;20463;-70
2023/05/08 00:13:20;;;;;;;14.63;13.33;;;17.00;99.90;;;;;;5052469;28;20217;-71
2023/05/08 00:15:46;;;;;;;15.10;13.50;;;17.10;99.90;;;;;;5052911;28;20549;-71
2023/05/08 00:18:12;;;;;;;15.80;14.30;;;17.10;99.90;;;;;;5053444;28;20224;-70
2023/05/08 00:20:37;;;;;;;14.57;12.73;;;17.10;99.90;;;;;;5053368;28;20176;-70
2023/05/08 00:23:03;;;;;;;14.83;13.53;;;17.10;99.90;;;;;;5053620;28;21004;-70
2023/05/08 00:25:30;;;;;;;16.87;15.07;;;17.10;99.90;;;;;;5042413;28;20199;-70
2023/05/08 00:27:56;;;;;;;17.10;15.40;;;17.10;99.90;;;;;;5035557;28;20188;-70
2023/05/08 00:30:22;;;;;;;18.00;15.70;;;17.20;99.90;;;;;;5037035;28;20487;-70
2023/05/08 00:32:47;;;;;;;18.30;14.73;;;17.20;99.90;;;;;;5037723;28;20221;-71
2023/05/08 00:35:13;;;;;;;17.37;15.57;;;17.20;99.90;;;;;;5037599;28;20657;-71
2023/05/08 00:37:40;;;;;;;17.80;16.07;;;17.10;99.90;;;;;;5037230;28;20170;-70
2023/05/08 00:40:10;;;;;;;18.10;16.30;;;17.10;99.90;;;;;;5054959;28;20163;-71
2023/05/08 00:42:36;;;;;;;17.63;15.90;;;17.10;99.90;;;;;;5039873;28;20416;-70
2023/05/08 00:45:02;;;;;;;18.70;16.90;;;17.10;99.90;;;;;;5057627;28;20452;-71
2023/05/08 00:47:28;;;;;;;18.37;16.67;;;17.20;99.90;;;;;;5057380;28;20784;-70
2023/05/08 00:49:53;;;;;;;20.33;18.27;;;17.20;99.90;;;;;;5057754;28;20393;-70
2023/05/08 00:52:19;;;;;;;18.63;16.83;;;17.20;99.90;;;;;;5064321;28;20564;-70
2023/05/08 00:54:45;;;;;;;21.03;18.97;;;17.30;99.90;;;;;;5075965;28;20182;-70
2023/05/08 00:57:13;;;;;;;15.97;14.40;;;17.40;99.90;;;;;;5076638;28;20193;-70
2023/05/08 00:59:40;;;;;;;19.67;17.67;;;17.40;99.90;;;;;;5076550;28;20413;-70
2023/05/08 01:02:07;;;;;;;19.37;17.47;;;17.30;99.90;;;;;;5058955;28;20409;-71
2023/05/08 01:04:33;;;;;;;19.83;17.67;;;17.30;99.90;;;;;;5076517;28;20464;-70
2023/05/08 01:07:00;;;;;;;18.87;16.93;;;17.20;99.90;;;;;;5077125;28;20413;-70
2023/05/08 01:09:26;;;;;;;18.57;16.60;;;17.20;99.90;;;;;;5076608;28;20409;-71
2023/05/08 01:12:11;;;;;;;18.47;16.63;;;17.20;99.90;;;;;;5075291;28;20459;-70
2023/05/08 01:15:05;;;;;;;20.40;18.17;;;17.30;99.90;;;;;;5075789;28;20182;-70
2023/05/08 01:17:52;;;;;;;18.73;16.90;;;17.30;99.90;;;;;;5074389;28;20469;-70
2023/05/08 01:20:48;;;;;;;20.30;18.20;;;17.30;99.90;;;;;;5057423;28;20381;-70
2023/05/08 01:23:38;;;;;;;19.10;17.30;;;17.40;99.90;;;;;;5056205;28;20377;-69
2023/05/08 01:26:40;;;;;;;23.03;20.63;;;17.40;99.90;;;;;;5055567;28;20973;-70
2023/05/08 01:29:42;;;;;;;23.57;20.30;;;17.30;99.90;;;;;;5035779;28;20378;-70
2023/05/08 01:32:19;;;;;;;22.90;20.50;;;17.30;99.90;;;;;;5035435;28;20393;-70
2023/05/08 01:35:02;;;;;;;21.10;17.73;;;17.30;99.90;;;;;;5017900;28;20445;-70
2023/05/08 01:37:49;;;;;;;22.47;19.67;;;17.30;99.90;;;;;;5035644;28;20402;-70
2023/05/08 01:40:42;;;;;;;30.20;24.90;;;17.30;99.90;;;;;;5035179;28;20447;-71
2023/05/08 01:43:52;;;;;;;23.37;20.87;;;17.30;99.90;;;;;;5035766;28;20447;-70
2023/05/08 01:46:31;;;;;;;22.97;20.53;;;17.30;99.90;;;;;;4988407;28;20535;-69
2023/05/08 01:49:08;;;;;;;24.67;21.87;;;17.30;99.90;;;;;;4994497;28;20487;-69
2023/05/08 01:52:03;;;;;;;26.10;23.13;;;17.30;99.90;;;;;;5020624;28;20803;-70
2023/05/08 01:54:38;;;;;;;26.63;23.77;;;17.30;99.90;;;;;;5031450;28;20426;-70
2023/05/08 01:57:05;;;;;;;23.83;21.43;;;17.20;99.90;;;;;;5035618;28;20890;-70
2023/05/08 01:59:33;;;;;;;24.53;21.93;;;17.20;99.90;;;;;;5017414;28;20794;-70
2023/05/08 02:02:00;;;;;;;26.50;23.70;;;17.30;99.90;;;;;;5034662;28;20409;-70
2023/05/08 02:04:27;;;;;;;23.77;20.37;;;17.20;99.90;;;;;;5034867;28;20458;-70
2023/05/08 02:06:54;;;;;;;23.27;21.00;;;17.30;99.90;;;;;;5035559;28;20826;-70
2023/05/08 02:09:21;;;;;;;21.93;19.53;;;17.30;99.90;;;;;;5035034;28;20920;-71
2023/05/08 02:11:48;;;;;;;22.27;19.10;;;17.30;99.90;;;;;;5034957;28;20404;-70
2023/05/08 02:14:18;;;;;;;25.87;22.33;;;17.30;99.90;;;;;;5034859;28;20928;-70
2023/05/08 02:16:45;;;;;;;22.23;19.87;;;17.30;99.90;;;;;;5043768;28;20410;-70
2023/05/08 02:19:11;;;;;;;19.47;17.47;;;17.30;99.90;;;;;;5035018;28;20409;-70
2023/05/08 02:21:38;;;;;;;21.47;19.27;;;17.40;99.90;;;;;;5035066;28;20464;-71
2023/05/08 02:24:05;;;;;;;23.50;21.20;;;17.40;99.90;;;;;;5034597;28;20441;-70
2023/05/08 02:26:32;;;;;;;28.23;24.97;;;17.30;99.90;;;;;;5034906;28;20439;-70
2023/05/08 02:29:01;;;;;;;22.20;20.00;;;17.30;99.90;;;;;;5034585;28;20433;-70
2023/05/08 02:31:28;;;;;;;22.67;20.40;;;17.30;99.90;;;;;;5034341;28;20814;-70
2023/05/08 02:33:56;;;;;;;22.70;20.50;;;17.20;99.90;;;;;;5034848;28;20426;-70
2023/05/08 02:36:22;;;;;;;24.50;21.07;;;17.20;99.90;;;;;;5034735;28;20471;-70
2023/05/08 02:38:54;;;;;;;21.63;19.33;;;17.10;99.90;;;;;;5034482;28;20414;-70
2023/05/08 02:41:24;;;;;;;21.47;19.33;;;17.00;99.90;;;;;;5034347;28;20390;-70
2023/05/08 02:43:51;;;;;;;23.43;20.63;;;17.10;99.90;;;;;;5034476;28;20433;-70
2023/05/08 02:46:44;;;;;;;17.50;15.90;;;17.10;99.90;;;;;;5052118;28;20461;-70
2023/05/08 02:49:30;;;;;;;21.03;18.83;;;17.20;99.90;;;;;;5054809;28;20457;-70
2023/05/08 02:52:08;;;;;;;13.93;12.50;;;17.20;99.90;;;;;;5053449;28;20398;-71
2023/05/08 02:54:42;;;;;;;16.20;14.70;;;17.30;99.90;;;;;;5054220;28;20443;-71
2023/05/08 02:57:32;;;;;;;12.93;11.70;;;17.30;99.90;;;;;;5054194;28;20381;-71
2023/05/08 03:00:19;;;;;;;14.60;13.20;;;17.30;99.90;;;;;;5054222;28;20401;-69
2023/05/08 03:03:00;;;;;;;13.10;11.80;;;17.40;99.90;;;;;;5053474;28;20430;-70
2023/05/08 03:05:30;;;;;;;12.87;11.43;;;17.30;99.90;;;;;;5053589;28;20467;-70
2023/05/08 03:08:01;;;;;;;15.03;13.63;;;17.30;99.90;;;;;;5053908;28;20471;-70
2023/05/08 03:10:31;;;;;;;13.50;12.23;;;17.40;99.90;;;;;;5054033;28;20389;-70
2023/05/08 03:12:58;;;;;;;12.73;11.63;;;17.20;99.90;;;;;;5054054;28;20385;-70
2023/05/08 03:16:03;;;;;;;12.87;11.77;;;17.00;99.90;;;;;;5053752;28;20944;-70
2023/05/08 03:18:48;;;;;;;13.07;11.80;;;17.00;99.90;;;;;;4992274;28;20938;-70
2023/05/08 03:21:18;;;;;;;14.37;13.07;;;16.90;99.90;;;;;;5048909;28;20473;-70
2023/05/08 03:23:45;;;;;;;11.60;10.60;;;16.80;99.90;;;;;;5053662;28;20467;-70
2023/05/08 03:26:15;;;;;;;12.73;11.63;;;16.90;99.90;;;;;;5051537;28;20463;-70
2023/05/08 03:28:40;;;;;;;11.90;10.67;;;17.00;99.90;;;;;;5053377;28;20492;-70
2023/05/08 03:31:06;;;;;;;14.53;13.13;;;16.80;99.90;;;;;;5052913;28;20971;-71
2023/05/08 03:33:32;;;;;;;12.17;10.97;;;16.80;99.90;;;;;;5053291;28;20204;-71
2023/05/08 03:35:58;;;;;;;15.77;14.23;;;17.00;99.90;;;;;;5053475;28;20548;-70
2023/05/08 03:38:24;;;;;;;13.70;12.50;;;17.00;99.90;;;;;;5053338;28;20409;-70
2023/05/08 03:40:52;;;;;;;11.93;10.83;;;17.10;99.90;;;;;;5053163;28;20989;-70
2023/05/08 03:43:19;;;;;;;14.70;13.30;;;17.10;99.90;;;;;;5053339;28;20424;-70
2023/05/08 03:45:46;;;;;;;13.30;11.90;;;17.10;99.90;;;;;;5052462;28;20793;-70
2023/05/08 03:48:14;;;;;;;13.37;12.07;;;17.20;99.90;;;;;;5052891;28;20903;-70
2023/05/08 03:50:40;;;;;;;14.90;13.60;;;17.20;99.90;;;;;;5053071;28;20450;-70
2023/05/08 03:53:05;;;;;;;15.00;13.70;;;17.00;99.90;;;;;;5053081;28;20458;-69
2023/05/08 03:55:31;;;;;;;18.43;16.77;;;17.00;99.90;;;;;;5052963;28;20792;-69
2023/05/08 03:58:06;;;;;;;15.00;13.60;;;16.90;99.90;;;;;;5053238;28;20296;-71
2023/05/08 04:01:02;;;;;;;15.43;14.13;;;17.00;99.90;;;;;;5053218;28;20405;-70
2023/05/08 04:04:01;;;;;;;15.00;13.60;;;16.90;99.90;;;;;;5053035;28;20452;-69
2023/05/08 04:06:50;;;;;;;18.60;16.73;;;16.40;99.90;;;;;;5053108;28;20398;-69
2023/05/08 04:09:33;;;;;;;20.70;18.90;;;16.50;99.90;;;;;;5034968;28;20401;-70
2023/05/08 04:12:16;;;;;;;15.20;13.80;;;16.50;99.90;;;;;;5053099;28;20389;-71
2023/05/08 04:15:09;;;;;;;15.37;13.80;;;16.60;99.90;;;;;;5052911;28;20428;-71
2023/05/08 04:17:48;;;;;;;14.27;12.93;;;16.50;99.90;;;;;;5051268;28;20410;-70
2023/05/08 04:20:18;;;;;;;16.73;15.33;;;16.60;99.90;;;;;;5033198;28;20392;-70
2023/05/08 04:22:45;;;;;;;14.00;12.70;;;16.80;99.90;;;;;;5033083;28;20426;-70
2023/05/08 04:25:13;;;;;;;14.57;13.17;;;16.80;99.90;;;;;;5032718;28;20889;-69
2023/05/08 04:27:40;;;;;;;13.90;12.60;;;16.80;99.90;;;;;;5033018;28;20413;-70
2023/05/08 04:30:07;;;;;;;14.80;13.30;;;17.00;99.90;;;;;;5032792;28;20403;-70
2023/05/08 04:32:34;;;;;;;14.70;13.50;;;17.00;99.90;;;;;;5032506;28;20433;-70
2023/05/08 04:35:00;;;;;;;17.33;15.63;;;17.10;99.90;;;;;;5032638;28;20429;-70
2023/05/08 04:37:30;;;;;;;14.10;12.70;;;17.20;99.90;;;;;;5032632;28;20402;-70
2023/05/08 04:39:55;;;;;;;13.63;12.43;;;17.30;99.90;;;;;;5032757;28;20418;-70
2023/05/08 04:42:21;;;;;;;14.47;13.07;;;17.20;99.90;;;;;;5033141;28;20491;-70
2023/05/08 04:44:47;;;;;;;18.53;16.70;;;17.30;99.90;;;;;;5016575;28;20207;-70
2023/05/08 04:47:15;;;;;;;14.23;13.00;;;17.30;99.90;;;;;;5052431;28;20633;-70
2023/05/08 04:49:41;;;;;;;18.90;17.20;;;17.10;99.90;;;;;;5052744;28;20517;-70
2023/05/08 04:52:07;;;;;;;16.20;14.73;;;16.90;99.90;;;;;;5051985;28;20459;-71
2023/05/08 04:54:32;;;;;;;14.90;13.70;;;16.80;99.90;;;;;;5052459;28;20549;-71
2023/05/08 04:56:58;;;;;;;14.87;13.67;;;17.00;99.90;;;;;;5052675;28;20412;-70
2023/05/08 04:59:24;;;;;;;22.13;19.10;;;17.10;99.90;;;;;;5052364;28;20171;-70
2023/05/08 05:01:50;;;;;;;14.37;13.00;;;17.10;99.90;;;;;;5052161;28;20181;-70
2023/05/08 05:04:16;;;;;;;14.00;12.80;;;17.00;99.90;;;;;;5034318;28;20445;-70
2023/05/08 05:06:41;;;;;;;16.80;15.10;;;17.00;99.90;;;;;;5034708;28;20163;-70
2023/05/08 05:09:08;;;;;;;13.07;11.83;;;16.90;99.90;;;;;;5052375;28;20520;-69
2023/05/08 05:11:33;;;;;;;14.03;12.83;;;17.00;99.90;;;;;;5052582;28;20170;-70
2023/05/08 05:14:03;;;;;;;16.40;14.90;;;16.90;99.90;;;;;;5054066;28;20439;-70
2023/05/08 05:16:28;;;;;;;14.27;13.07;;;17.00;99.90;;;;;;5060835;28;20166;-70
2023/05/08 05:18:54;;;;;;;14.37;13.17;;;17.10;99.90;;;;;;5056368;28;20769;-71
2023/05/08 05:21:20;;;;;;;14.60;13.30;;;17.30;99.90;;;;;;5055972;28;20173;-71
2023/05/08 05:23:45;;;;;;;16.73;15.10;;;17.10;99.90;;;;;;5055555;28;20170;-70
2023/05/08 05:26:11;;;;;;;16.43;14.83;;;17.30;99.90;;;;;;5054047;28;20194;-70
2023/05/08 05:28:37;;;;;;;14.37;12.97;;;17.40;99.90;;;;;;5055939;28;20249;-70
2023/05/08 05:31:03;;;;;;;14.90;13.50;;;17.50;99.90;;;;;;5055576;28;20174;-70
2023/05/08 05:33:28;;;;;;;13.80;12.40;;;17.50;99.90;;;;;;5055053;28;20641;-70
2023/05/08 05:35:54;;;;;;;14.57;13.37;;;17.40;99.90;;;;;;5055952;28;20546;-70
2023/05/08 05:38:19;;;;;;;14.70;13.40;;;17.50;99.90;;;;;;5055515;28;20174;-70
2023/05/08 05:40:45;;;;;;;14.30;13.10;;;17.50;99.90;;;;;;5055423;28;20253;-70
2023/05/08 05:43:11;;;;;;;15.07;13.67;;;17.60;99.90;;;;;;5037382;28;20182;-70
2023/05/08 05:45:36;;;;;;;16.30;14.70;;;17.60;99.90;;;;;;5054200;28;20213;-70
2023/05/08 05:48:02;;;;;;;16.23;14.73;;;17.70;99.90;;;;;;5056012;28;20205;-70
2023/05/08 05:50:27;;;;;;;15.03;13.57;;;17.70;99.90;;;;;;5042876;28;20222;-69
2023/05/08 05:52:56;;;;;;;20.43;18.57;;;17.80;99.90;;;;;;5035170;28;20170;-70
2023/05/08 05:55:22;;;;;;;17.50;15.70;;;17.70;99.90;;;;;;5035216;28;20198;-70
2023/05/08 05:57:47;;;;;;;15.37;14.07;;;17.50;99.90;;;;;;5035081;28;20806;-70
2023/05/08 06:00:14;;;;;;;14.47;12.97;;;17.40;99.90;;;;;;5035216;28;20405;-70
2023/05/08 06:02:40;;;;;;;17.77;16.07;;;17.20;99.90;;;;;;5034813;28;20167;-70
2023/05/08 06:05:07;;;;;;;15.73;14.13;;;17.30;99.90;;;;;;5034858;28;20473;-70
2023/05/08 06:07:32;;;;;;;16.47;15.00;;;17.30;99.90;;;;;;5034937;28;20399;-70
2023/05/08 06:09:58;;;;;;;16.57;15.00;;;17.10;99.90;;;;;;5017109;28;20410;-70
2023/05/08 06:12:24;;;;;;;21.17;19.17;;;17.10;99.90;;;;;;5034757;28;20572;-70
2023/05/08 06:14:51;;;;;;;18.20;16.60;;;17.20;99.90;;;;;;5035506;28;20191;-70
2023/05/08 06:17:17;;;;;;;17.20;15.73;;;17.40;99.90;;;;;;5054034;28;20401;-71
2023/05/08 06:19:43;;;;;;;20.67;18.67;;;17.50;99.90;;;;;;5054309;28;20495;-71
2023/05/08 06:22:08;;;;;;;16.67;15.17;;;17.40;99.90;;;;;;5053942;28;20903;-70
2023/05/08 06:24:35;;;;;;;16.83;15.30;;;17.30;99.90;;;;;;5039002;28;20285;-70
2023/05/08 06:27:01;;;;;;;16.13;14.73;;;17.20;99.90;;;;;;5034610;28;20245;-70
2023/05/08 06:29:26;;;;;;;18.07;16.47;;;17.10;99.90;;;;;;5034839;28;20457;-71
2023/05/08 06:31:52;;;;;;;16.80;15.40;;;17.00;99.90;;;;;;5034246;28;20644;-71
2023/05/08 06:34:17;;;;;;;16.80;15.13;;;17.00;99.90;;;;;;5034192;28;20183;-69
2023/05/08 06:36:43;;;;;;;18.17;16.57;;;17.10;99.90;;;;;;5016464;28;20536;-71
2023/05/08 06:39:09;;;;;;;18.40;16.90;;;17.20;99.90;;;;;;5034142;28;20179;-70
2023/05/08 06:41:35;;;;;;;14.40;13.20;;;17.30;99.90;;;;;;5034642;28;20191;-71
2023/05/08 06:44:01;;;;;;;13.67;12.53;;;17.40;99.90;;;;;;5036382;28;20426;-71
2023/05/08 06:46:28;;;;;;;15.20;13.80;;;17.50;99.90;;;;;;5053724;28;20453;-70
2023/05/08 06:48:54;;;;;;;15.50;13.93;;;17.60;99.90;;;;;;5036130;28;20688;-70
2023/05/08 06:51:21;;;;;;;13.97;12.57;;;17.70;99.90;;;;;;5054114;28;20484;-70
2023/05/08 06:53:47;;;;;;;15.40;14.00;;;17.80;99.90;;;;;;5054600;28;20216;-71
2023/05/08 06:56:13;;;;;;;14.73;13.37;;;17.80;99.90;;;;;;5035635;28;20823;-70
2023/05/08 06:58:38;;;;;;;12.90;11.80;;;17.80;99.90;;;;;;5053796;28;20640;-70
2023/05/08 07:01:04;;;;;;;17.23;15.63;;;17.70;99.90;;;;;;5053642;28;20182;-70
2023/05/08 07:03:30;;;;;;;14.30;13.10;;;17.70;99.90;;;;;;5049410;28;20167;-71
2023/05/08 07:05:55;;;;;;;14.50;13.20;;;17.60;99.90;;;;;;5051119;28;20210;-69
2023/05/08 07:08:21;;;;;;;15.50;14.10;;;17.80;99.90;;;;;;5052459;28;20187;-69
2023/05/08 07:10:46;;;;;;;12.90;11.80;;;17.90;99.90;;;;;;5052686;28;20196;-70
2023/05/08 07:13:12;;;;;;;13.70;12.33;;;18.00;99.90;;;;;;5052845;28;20185;-70
2023/05/08 07:15:38;;;;;;;12.17;11.13;;;18.00;99.90;;;;;;5038504;28;20564;-70
2023/05/08 07:18:04;;;;;;;13.70;12.50;;;18.00;99.90;;;;;;5052646;28;20401;-70
2023/05/08 07:20:29;;;;;;;12.80;11.70;;;17.90;99.90;;;;;;5052544;28;20178;-70
2023/05/08 07:22:55;;;;;;;13.23;11.87;;;17.70;99.90;;;;;;5052883;28;20752;-70
2023/05/08 07:25:20;;;;;;;18.20;16.50;;;17.60;99.90;;;;;;5048064;28;20309;-70
2023/05/08 07:27:46;;;;;;;13.97;12.87;;;17.50;99.90;;;;;;5028275;28;20199;-71
2023/05/08 07:30:12;;;;;;;14.60;13.30;;;17.60;99.90;;;;;;5046303;28;20159;-71
2023/05/08 07:32:38;;;;;;;16.77;15.30;;;17.70;99.90;;;;;;5033396;28;20171;-71
2023/05/08 07:35:07;;;;;;;14.83;13.53;;;17.90;99.90;;;;;;5045651;28;20428;-71
2023/05/08 07:37:32;;;;;;;14.43;13.23;;;18.00;99.90;;;;;;5046950;28;20174;-69
2023/05/08 07:39:58;;;;;;;13.43;12.13;;;18.10;99.90;;;;;;5047941;28;20946;-70
2023/05/08 07:42:23;;;;;;;14.20;13.00;;;18.10;99.90;;;;;;5047789;28;20178;-70
2023/05/08 07:44:49;;;;;;;17.23;15.77;;;18.20;99.90;;;;;;5046397;28;20560;-70
2023/05/08 07:47:15;;;;;;;17.90;16.10;;;18.00;99.90;;;;;;5026556;28;20171;-69
2023/05/08 07:49:40;;;;;;;15.83;13.17;;;17.70;99.90;;;;;;5026354;28;20171;-69
2023/05/08 07:52:06;;;;;;;13.80;12.70;;;17.90;99.90;;;;;;5028536;28;20316;-69
2023/05/08 07:54:32;;;;;;;11.73;10.67;;;18.00;99.90;;;;;;5045864;28;20443;-70
2023/05/08 07:56:57;;;;;;;11.53;10.53;;;18.10;99.90;;;;;;5046244;28;20178;-70
2023/05/08 07:59:23;;;;;;;10.10;9.10;;;18.40;99.90;;;;;;5047489;28;20174;-70
2023/05/08 08:01:49;;;;;;;7.67;6.97;;;18.50;99.90;;;;;;5046291;28;20171;-71
2023/05/08 08:04:14;;;;;;;6.57;5.97;;;18.40;99.90;;;;;;5046867;28;20202;-70
2023/05/08 08:06:40;;;;;;;7.00;6.30;;;18.00;99.90;;;;;;5046793;28;20202;-71
2023/05/08 08:09:06;;;;;;;7.60;6.80;;;18.30;99.90;;;;;;5047503;28;20182;-71
2023/05/08 08:11:32;;;;;;;7.60;6.80;;;18.40;99.90;;;;;;5046443;28;20170;-71
2023/05/08 08:13:57;;;;;;;6.73;6.17;;;18.30;99.90;;;;;;5045907;28;20939;-70
2023/05/08 08:16:23;;;;;;;6.63;6.03;;;18.30;99.90;;;;;;5034863;28;20171;-70
2023/05/08 08:18:48;;;;;;;7.20;6.60;;;18.30;99.90;;;;;;5025395;28;20676;-70
2023/05/08 08:21:14;;;;;;;6.10;5.60;;;18.30;99.90;;;;;;5038200;28;20174;-70
2023/05/08 08:23:39;;;;;;;6.63;6.03;;;18.30;99.90;;;;;;5025048;28;20579;-72
2023/05/08 08:26:05;;;;;;;8.20;7.50;;;18.60;99.90;;;;;;5046113;28;20550;-71
2023/05/08 08:28:31;;;;;;;8.20;7.40;;;18.40;99.90;;;;;;5046168;28;20198;-70
2023/05/08 08:30:57;;;;;;;9.33;8.57;;;18.30;99.90;;;;;;5046216;28;20424;-70
2023/05/08 08:33:22;;;;;;;10.57;9.47;;;18.20;99.90;;;;;;5027385;28;20712;-70
2023/05/08 08:35:48;;;;;;;10.33;8.17;;;17.90;99.90;;;;;;5008521;28;20191;-70
2023/05/08 08:38:14;;;;;;;10.30;9.30;;;17.70;99.90;;;;;;5026233;28;20183;-70
2023/05/08 08:40:40;;;;;;;13.00;9.20;;;17.70;99.90;;;;;;5026374;28;20199;-70
2023/05/08 08:43:07;;;;;;;10.87;9.87;;;17.70;99.90;;;;;;5008473;28;20167;-70
2023/05/08 08:45:32;;;;;;;9.67;8.77;;;17.80;99.90;;;;;;5026691;28;20449;-70
2023/05/08 08:48:01;;;;;;;9.53;8.53;;;18.00;99.90;;;;;;5028607;28;20966;-71
2023/05/08 08:50:30;;;;;;;9.60;8.80;;;18.20;99.90;;;;;;5029689;28;20182;-70
2023/05/08 08:52:59;;;;;;;11.00;10.03;;;18.30;99.90;;;;;;5031110;28;20891;-70
2023/05/08 08:55:25;;;;;;;11.90;10.77;;;18.40;99.90;;;;;;5029633;28;20429;-70
2023/05/08 08:57:58;;;;;;;8.53;7.83;;;18.30;99.90;;;;;;5030311;28;20412;-71
2023/05/08 09:00:28;;;;;;;9.87;9.07;;;18.40;99.90;;;;;;5029809;28;21249;-72
2023/05/08 09:02:54;;;;;;;10.50;9.50;;;18.60;99.90;;;;;;5030653;28;20403;-70
2023/05/08 09:05:22;;;;;;;10.07;9.07;;;18.50;99.90;;;;;;5030339;28;20983;-70
2023/05/08 09:07:48;;;;;;;11.40;10.30;;;18.20;99.90;;;;;;5030426;28;20417;-71
2023/05/08 09:10:14;;;;;;;11.07;9.60;;;18.00;99.90;;;;;;5013235;28;20410;-70
2023/05/08 09:12:41;;;;;;;12.80;11.47;;;18.00;99.90;;;;;;5029756;28;20433;-70
2023/05/08 09:15:07;;;;;;;10.80;9.87;;;18.10;99.90;;;;;;5046381;28;20433;-71
2023/05/08 09:17:32;;;;;;;11.77;10.67;;;18.20;99.90;;;;;;5029982;28;20408;-70
2023/05/08 09:19:58;;;;;;;11.57;10.47;;;18.30;99.90;;;;;;5029449;28;20331;-71
2023/05/08 09:22:25;;;;;;;12.50;11.30;;;18.40;99.90;;;;;;5029438;28;20171;-70
2023/05/08 09:24:58;;;;;;;11.73;10.17;;;18.50;99.90;;;;;;5049050;28;20525;-70
2023/05/08 09:27:26;;;;;;;10.03;9.10;;;18.50;99.90;;;;;;5049598;28;20424;-70
2023/05/08 09:30:06;;;;;;;10.57;9.57;;;18.60;99.90;;;;;;5049469;28;20405;-70
2023/05/08 09:32:33;;;;;;;11.03;10.03;;;18.60;99.90;;;;;;5049533;28;20397;-71
2023/05/08 09:34:59;;;;;;;10.10;9.20;;;18.80;99.90;;;;;;5041467;28;20441;-70
2023/05/08 09:37:26;;;;;;;11.33;9.90;;;19.00;99.90;;;;;;5047486;28;20413;-71
2023/05/08 09:39:52;;;;;;;11.73;10.63;;;19.30;99.90;;;;;;5029440;28;20475;-71
2023/05/08 09:42:18;;;;;;;10.30;9.40;;;19.30;99.90;;;;;;5029742;28;20418;-68
2023/05/08 09:44:48;;;;;;;11.53;10.33;;;19.30;99.90;;;;;;5029015;28;20952;-70
2023/05/08 09:47:22;;;;;;;11.20;10.20;;;19.60;99.90;;;;;;5029160;28;20168;-71
2023/05/08 09:50:08;;;;;;;11.10;10.00;;;19.60;99.90;;;;;;5048048;28;20401;-70
2023/05/08 09:52:36;;;;;;;11.50;8.97;;;19.70;99.90;;;;;;5049541;28;20413;-70
2023/05/08 09:55:02;;;;;;;10.40;9.50;;;19.40;99.90;;;;;;5049104;28;20433;-68
2023/05/08 09:57:31;;;;;;;12.77;11.70;;;19.60;99.90;;;;;;5048371;28;20401;-69
2023/05/08 10:00:06;;;;;;;11.03;10.03;;;20.00;99.90;;;;;;5048127;28;20500;-68
2023/05/08 10:02:32;;;;;;;8.87;8.07;;;20.40;99.90;;;;;;5048375;28;20397;-69
2023/05/08 10:04:57;;;;;;;9.43;8.50;;;20.60;99.90;;;;;;5048832;28;20465;-70
2023/05/08 10:07:41;;;;;;;9.17;8.00;;;20.90;99.90;;;;;;5030962;28;20171;-69
2023/05/08 10:10:07;;;;;;;7.83;7.13;;;20.80;99.90;;;;;;5049525;28;20163;-69
2023/05/08 10:12:33;;;;;;;8.67;7.87;;;20.90;99.90;;;;;;5048303;28;20781;-69
2023/05/08 10:14:59;;;;;;;8.10;7.07;;;20.90;99.90;;;;;;5039031;28;20728;-69
2023/05/08 10:18:03;;;;;;;8.00;7.20;;;20.50;99.90;;;;;;5031552;28;20666;-69
2023/05/08 10:20:30;;;;;;;8.23;7.53;;;20.20;99.90;;;;;;5034373;28;20541;-68
2023/05/08 10:22:56;;;;;;;7.70;6.97;;;20.40;99.90;;;;;;5011370;28;20414;-69
2023/05/08 10:25:23;;;;;;;9.20;8.00;;;20.60;99.90;;;;;;5028119;28;20454;-69
2023/05/08 10:27:58;;;;;;;8.07;7.37;;;20.60;99.90;;;;;;5033278;28;20398;-69
2023/05/08 10:30:25;;;;;;;8.80;8.00;;;20.20;99.90;;;;;;5030292;28;20409;-70
2023/05/08 10:32:57;;;;;;;9.00;8.10;;;20.10;99.90;;;;;;5029874;28;20398;-69
2023/05/08 10:35:22;;;;;;;9.20;8.30;;;20.30;99.90;;;;;;5030433;28;20434;-69
2023/05/08 10:37:48;;;;;;;9.27;8.07;;;20.60;99.90;;;;;;5029878;28;20981;-70
2023/05/08 10:40:15;;;;;;;9.60;7.30;;;20.80;99.90;;;;;;5042252;28;20205;-70
2023/05/08 10:42:41;;;;;;;7.60;6.90;;;20.60;99.90;;;;;;5042848;28;20424;-69
2023/05/08 10:45:08;;;;;;;8.60;7.80;;;20.50;99.90;;;;;;5043825;28;20847;-69
2023/05/08 10:48:03;;;;;;;7.37;6.77;;;20.50;99.90;;;;;;5043681;28;20637;-68
2023/05/08 10:51:01;;;;;;;8.37;7.67;;;20.50;99.90;;;;;;5044069;28;20389;-68
2023/05/08 10:53:38;;;;;;;7.40;6.73;;;20.60;99.90;;;;;;5043456;28;20401;-69
2023/05/08 10:56:04;;;;;;;6.03;5.40;;;20.90;99.90;;;;;;5033270;28;20394;-68
2023/05/08 10:58:32;;;;;;;4.90;4.50;;;20.80;99.90;;;;;;5033995;28;20414;-68
2023/05/08 11:01:04;;;;;;;6.10;5.60;;;20.60;99.90;;;;;;5033880;28;20476;-69
2023/05/08 11:03:31;;;;;;;6.40;5.80;;;20.70;99.90;;;;;;5033606;28;20447;-68
2023/05/08 11:05:59;;;;;;;6.20;5.47;;;20.60;99.90;;;;;;5033730;28;20461;-68
2023/05/08 11:08:27;;;;;;;6.00;5.40;;;20.60;99.90;;;;;;5033960;28;20773;-69
2023/05/08 11:11:00;;;;;;;6.63;6.03;;;20.60;99.90;;;;;;5033755;28;20518;-70
2023/05/08 11:13:49;;;;;;;6.23;5.47;;;20.90;99.90;;;;;;5033424;28;20914;-68
2023/05/08 11:16:15;;;;;;;6.27;5.77;;;20.60;99.90;;;;;;5043500;28;20409;-69
2023/05/08 11:19:15;;;;;;;5.90;5.40;;;20.50;99.90;;;;;;5039258;28;20416;-69
2023/05/08 11:22:13;;;;;;;5.43;4.77;;;20.60;99.90;;;;;;5031624;28;20421;-71
2023/05/08 11:24:45;;;;;;;5.13;4.73;;;21.30;99.90;;;;;;5028981;28;20472;-70
2023/05/08 11:27:11;;;;;;;6.17;5.67;;;21.60;99.90;;;;;;5015528;28;20429;-69
2023/05/08 11:29:37;;;;;;;5.20;4.80;;;21.70;99.90;;;;;;5029322;28;20406;-70
2023/05/08 11:32:03;;;;;;;5.30;4.90;;;22.00;99.90;;;;;;5036399;28;20175;-71
2023/05/08 11:34:41;;;;;;;5.37;4.87;;;22.90;99.90;;;;;;5009662;28;20434;-71
2023/05/08 11:37:15;;;;;;;6.70;6.20;;;23.70;99.90;;;;;;5027610;28;20475;-70
2023/05/08 11:39:41;;;;;;;7.00;6.40;;;24.00;99.90;;;;;;5028262;28;20409;-70
2023/05/08 11:42:28;;;;;;;7.17;6.57;;;23.70;99.90;;;;;;5028023;28;20410;-70
2023/05/08 11:45:04;;;;;;;6.70;6.10;;;23.50;99.90;;;;;;5046817;28;20194;-72
2023/05/08 11:47:47;;;;;;;10.20;7.57;;;23.70;99.90;;;;;;5027782;28;20403;-69
2023/05/08 11:50:13;;;;;;;8.73;7.93;;;23.40;99.90;;;;;;5027430;28;20402;-70
2023/05/08 11:52:40;;;;;;;9.47;8.67;;;23.40;99.90;;;;;;5034306;28;20484;-70
2023/05/08 11:55:08;;;;;;;9.83;8.83;;;23.30;99.90;;;;;;5047906;28;20252;-70
2023/05/08 11:57:34;;;;;;;9.70;8.80;;;23.50;99.90;;;;;;5036412;28;20509;-70
2023/05/08 12:00:07;;;;;;;11.33;10.20;;;23.30;99.90;;;;;;5027627;28;20500;-70
2023/05/08 12:02:40;;;;;;;9.33;8.53;;;23.60;99.90;;;;;;5028673;28;20175;-70
2023/05/08 12:05:07;;;;;;;10.03;9.20;;;23.30;99.90;;;;;;5034922;28;21053;-69
2023/05/08 12:07:43;;;;;;;10.80;9.83;;;23.90;99.90;;;;;;5045329;28;20919;-70
2023/05/08 12:10:09;;;;;;;10.13;9.33;;;23.50;99.90;;;;;;5047225;28;20400;-69
2023/05/08 12:12:41;;;;;;;11.47;10.47;;;22.80;99.90;;;;;;5043690;28;20412;-70
2023/05/08 12:15:08;;;;;;;11.33;10.07;;;23.20;99.90;;;;;;5045983;28;20447;-70
2023/05/08 12:17:34;;;;;;;9.77;8.97;;;22.70;99.90;;;;;;5046349;28;21212;-70
2023/05/08 12:20:11;;;;;;;11.33;10.43;;;23.60;99.90;;;;;;5047078;28;20934;-69
2023/05/08 12:22:39;;;;;;;10.40;9.40;;;24.10;99.90;;;;;;5047230;28;20511;-70
2023/05/08 12:25:06;;;;;;;10.30;9.40;;;25.80;99.90;;;;;;5051236;28;20605;-70
2023/05/08 12:27:32;;;;;;;8.87;7.93;;;25.80;99.90;;;;;;5050915;28;20408;-70
2023/05/08 12:29:57;;;;;;;8.73;7.93;;;26.40;99.90;;;;;;5050442;28;20413;-68
2023/05/08 12:32:24;;;;;;;9.27;8.47;;;26.10;99.90;;;;;;5050868;28;20178;-67
2023/05/08 12:34:51;;;;;;;9.63;8.83;;;26.10;99.90;;;;;;5051294;28;20260;-68
2023/05/08 12:37:25;;;;;;;9.17;8.27;;;25.50;99.90;;;;;;5036753;28;20409;-70
2023/05/08 12:39:51;;;;;;;10.87;9.87;;;26.40;99.90;;;;;;5044819;28;21208;-69
2023/05/08 12:42:16;;;;;;;7.83;7.03;;;26.50;99.90;;;;;;5030818;28;20410;-68
2023/05/08 12:44:52;;;;;;;8.77;8.07;;;27.50;99.90;;;;;;5030829;28;20669;-69
2023/05/08 12:47:21;;;;;;;9.00;8.30;;;28.70;99.90;;;;;;5032093;28;20175;-69